»·PEaware :: N516DM KMHV-KSBD

N516DM :: KMHV-KSBD

FLIGHT INFORMATION

Flight Status: Arrived
Operator: Privately registered:
United States
More flights under this callsign
Pilot: Paul A. (20189)
Aircraft: CESSNA 182 SKYLANE
(C182)
More flights by this aircraft type
Origin: KMHV Mojave
United States
Destination: KSBD San Bernardino Intl
United States
More flights between these airports :: More routes between these airports
Route:
File this flight plan on PilotEdge
Remarks:
Altitude:
(Current/Filed)
7,500ft
Speed:
(Current/Filed)
120kts
Departed: 04-Sep-18 10:16 AM
Arrived: 04-Sep-18 10:55 AM
Distance/Time
Traveled:
73nm/0:38
Distance/Time
To Go:
Arrived

Flight Plot

Page will automatically refresh every two minutes.

Flight plan parsing failed; only flown route is shown


Map Options




Map Legend


Flown Route
Filed Route
Departure Airport
Arrival Airport
Navaid (VOR, NDB)
Fix

Horizontal Profiles

Position Reports

Time Latitude Longitude Heading Altitude Ground
Speed
04-Sep-18 10:04 35.057155 -118.158522 199 2794ft 0kts
04-Sep-18 10:05 35.057155 -118.158522 199 2794ft 0kts
04-Sep-18 10:06 35.057154 -118.158523 199 2794ft 0kts
04-Sep-18 10:07 35.057153 -118.158523 199 2794ft 0kts
04-Sep-18 10:08 35.057152 -118.158524 199 2794ft 0kts
04-Sep-18 10:09 35.057151 -118.158524 199 2794ft 0kts
04-Sep-18 10:10 35.057150 -118.158524 199 2794ft 0kts
04-Sep-18 10:11 35.057149 -118.158525 199 2794ft 0kts
04-Sep-18 10:12 35.057149 -118.158525 199 2794ft 0kts
04-Sep-18 10:13 35.057518 -118.158740 320 2794ft 4kts
04-Sep-18 10:14 35.057587 -118.163806 270 2794ft 9kts
04-Sep-18 10:15 35.058468 -118.165155 320 2794ft 0kts
04-Sep-18 10:16 35.058469 -118.165156 320 2794ft 0kts
04-Sep-18 10:17 35.059243 -118.159997 90 2825ft 67kts
04-Sep-18 10:18 35.058239 -118.133973 112 3578ft 88kts
04-Sep-18 10:19 35.036155 -118.114945 144 4459ft 95kts
04-Sep-18 10:20 35.011543 -118.107333 164 5444ft 87kts
04-Sep-18 10:21 34.986712 -118.101481 164 6231ft 95kts
04-Sep-18 10:22 34.959938 -118.094980 165 6976ft 103kts
04-Sep-18 10:23 34.924976 -118.085830 164 7458ft 141kts
04-Sep-18 10:24 34.885929 -118.075257 165 7515ft 141kts
04-Sep-18 10:25 34.846777 -118.063210 158 7515ft 141kts
04-Sep-18 10:26 34.809699 -118.042695 153 7489ft 137kts
04-Sep-18 10:27 34.778172 -118.017986 143 7510ft 136kts
04-Sep-18 10:28 34.744822 -117.989457 143 7501ft 148kts
04-Sep-18 10:29 34.711079 -117.960160 142 7513ft 142kts
04-Sep-18 10:30 34.678085 -117.931635 142 7506ft 139kts
04-Sep-18 10:31 34.646625 -117.902780 136 7515ft 136kts
04-Sep-18 10:32 34.617154 -117.871059 137 7504ft 138kts
04-Sep-18 10:33 34.588225 -117.840034 136 7519ft 137kts
04-Sep-18 10:34 34.557928 -117.807423 136 7496ft 140kts
04-Sep-18 10:35 34.529526 -117.777012 137 7516ft 134kts
04-Sep-18 10:36 34.500899 -117.744000 126 7506ft 140kts
04-Sep-18 10:37 34.476739 -117.706724 127 7492ft 135kts
04-Sep-18 10:38 34.454215 -117.671589 126 7501ft 129kts
04-Sep-18 10:39 34.431495 -117.636521 127 7502ft 135kts
04-Sep-18 10:40 34.407028 -117.598626 127 7489ft 136kts
04-Sep-18 10:41 34.384803 -117.564357 127 7493ft 125kts
04-Sep-18 10:42 34.361743 -117.532835 133 7500ft 126kts
04-Sep-18 10:43 34.335971 -117.502595 139 6780ft 129kts
04-Sep-18 10:44 34.306760 -117.476353 149 5703ft 135kts
04-Sep-18 10:45 34.275899 -117.455803 148 5501ft 116kts
04-Sep-18 10:46 34.244535 -117.434935 149 5471ft 129kts
04-Sep-18 10:47 34.212584 -117.413341 149 4860ft 138kts
04-Sep-18 10:48 34.182737 -117.392301 151 4481ft 103kts
04-Sep-18 10:49 34.158548 -117.375658 149 4490ft 101kts
04-Sep-18 10:50 34.134027 -117.358702 148 4469ft 105kts
04-Sep-18 10:51 34.106663 -117.341897 156 3035ft 102kts
04-Sep-18 10:52 34.083272 -117.329020 134 2363ft 84kts
04-Sep-18 10:53 34.078554 -117.301258 99 2039ft 83kts
04-Sep-18 10:54 34.083753 -117.276568 75 1629ft 74kts
04-Sep-18 10:55 34.089827 -117.253597 70 1213ft 70kts
04-Sep-18 10:56 34.093972 -117.242124 358 1122ft 0kts
04-Sep-18 10:57 34.094995 -117.242157 358 1122ft 19kts

Navigation Log

Ident Type
Flight plan parsing failed, navigation log unavailable